Malibu, CA (90263)

1:00 PM PDT on July 27, 2016 (GMT -0700)
Point Dume | | Change Station

Elev 190 ft 34.01 °N, 118.81 °W | Updated 17 seconds ago

Partly Cloudy
Partly Cloudy
71.8 °F
Feels Like 72 °F
N
5.8
Wind Variable Wind from NNE
Gusts 7.4 mph

Today
High -- | Low -- °F
--% Chance of Precip.
Yesterday
High -- | Low -- °F
Precip. -- in
Pressure 29.94 in
Visibility 10.0 miles
Clouds Few 6500 ft
Few 20000 ft
Heat Index 72 °F
Dew Point 65 °F
Humidity 79%
Rainfall 0.00 in
Snow Depth Not available.
6:03 AM 7:59 PM
Last Quarter, 40% visible
METAR KNTD 271956Z 23009KT 10SM FEW065 FEW200 24/18 A2993 RMK AO2 SLP136 T02440183 $
Pressure 29.94 in
Visibility 10.0 miles
Clouds Few 6500 ft
Few 20000 ft
Heat Index 72 °F
Dew Point 65 °F
Humidity 79%
Rainfall 0.00 in
Snow Depth Not available.
6:03 AM 7:59 PM
Last Quarter, 40% visible
METAR KNTD 271956Z 23009KT 10SM FEW065 FEW200 24/18 A2993 RMK AO2 SLP136 T02440183 $

10-Day Weather Forecast

Almanac

Astronomy

Jul. 27, 2016 Rise Set
Actual Time
Civil Twilight
Nautical Twilight
Astronomical Twilight
Moon
Length of Visible Light
Length of Day
Tomorrow will be .
, % of the Moon is Illuminated

Today's Extremes

State Highs State Lows

Community

WunderPhotos

Upload Photos

1,927,920 photos uploaded!

WunderBlog® & News

Nearby

Air Quality

  Air Quality AQ Index Pollutant
Not available.

Snow Depth

Station Depth Elevation

Earthquake Activity

City Distance Mag. Time & Date
Minimum magnitude displayed is 2.5.

Coastal Water Temperatures

Place Temperature

Stations

Nearby Weather Stations

Station Location Temp. Windchill Dew Point Humidity Wind Precip. Elev Updated Type
                   

Watches & Warnings

There are currently no watches in effect.